createdAt,value
2023-04-22T00:00:08.867Z,1014.40
2023-04-22T00:01:13.225Z,1014.39
2023-04-22T00:02:17.485Z,1014.39
2023-04-22T00:03:21.719Z,1014.37
2023-04-22T00:04:26.076Z,1014.36
2023-04-22T00:05:30.140Z,1014.36
2023-04-22T00:06:34.264Z,1014.36
2023-04-22T00:07:38.473Z,1014.36
2023-04-22T00:08:42.785Z,1014.35
2023-04-22T00:09:47.180Z,1014.35
2023-04-22T00:10:51.335Z,1014.33
2023-04-22T00:11:55.618Z,1014.33
2023-04-22T00:12:59.917Z,1014.31
2023-04-22T00:14:04.126Z,1014.31
2023-04-22T00:15:08.388Z,1014.30
2023-04-22T00:16:12.677Z,1014.28
2023-04-22T00:17:16.902Z,1014.30
2023-04-22T00:18:21.090Z,1014.30
2023-04-22T00:19:25.311Z,1014.32
2023-04-22T00:20:29.690Z,1014.27
2023-04-22T00:21:33.848Z,1014.25
2023-04-22T00:22:38.229Z,1014.23
2023-04-22T00:23:42.607Z,1014.23
2023-04-22T00:24:46.799Z,1014.20
2023-04-22T00:25:51.079Z,1014.18
2023-04-22T00:26:55.371Z,1014.16
2023-04-22T00:27:59.684Z,1014.15
2023-04-22T00:29:03.931Z,1014.13
2023-04-22T00:30:08.144Z,1014.11
2023-04-22T00:31:12.533Z,1014.10
2023-04-22T00:32:16.786Z,1014.10
2023-04-22T00:33:21.123Z,1014.08
2023-04-22T00:34:25.420Z,1014.06
2023-04-22T00:35:29.733Z,1014.05
2023-04-22T00:36:33.927Z,1014.07
2023-04-22T00:37:38.167Z,1014.04
2023-04-22T00:38:42.435Z,1014.03
2023-04-22T00:39:46.648Z,1014.02
2023-04-22T00:40:50.924Z,1013.98
2023-04-22T00:41:55.146Z,1013.99
2023-04-22T00:42:59.425Z,1013.98
2023-04-22T00:44:06.731Z,1013.94
2023-04-22T00:45:10.061Z,1013.92
2023-04-22T00:46:14.289Z,1013.90
2023-04-22T00:47:18.576Z,1013.90
2023-04-22T00:48:22.849Z,1013.88
2023-04-22T00:49:27.113Z,1013.87
2023-04-22T00:50:31.519Z,1013.85
2023-04-22T00:51:35.825Z,1013.86
2023-04-22T00:52:40.051Z,1013.84
2023-04-22T00:53:44.333Z,1013.83
2023-04-22T00:54:48.561Z,1013.82
2023-04-22T00:55:52.726Z,1013.83
2023-04-22T00:57:03.184Z,1013.85
2023-04-22T00:58:06.035Z,1013.83
2023-04-22T00:59:10.269Z,1013.83
2023-04-22T01:00:14.537Z,1013.84
2023-04-22T01:01:18.925Z,1013.80
2023-04-22T01:02:23.161Z,1013.82
2023-04-22T01:03:27.384Z,1013.79
2023-04-22T01:04:31.614Z,1013.78
2023-04-22T01:05:35.891Z,1013.75
2023-04-22T01:06:40.186Z,1013.75
2023-04-22T01:07:44.389Z,1013.76
2023-04-22T01:08:48.714Z,1013.75
2023-04-22T01:09:52.956Z,1013.73
2023-04-22T01:10:57.210Z,1013.73
2023-04-22T01:12:01.537Z,1013.73
2023-04-22T01:13:05.657Z,1013.72
2023-04-22T01:14:09.889Z,1013.74
2023-04-22T01:15:14.261Z,1013.73
2023-04-22T01:16:18.547Z,1013.72
2023-04-22T01:17:22.763Z,1013.70
2023-04-22T01:18:27.003Z,1013.69
2023-04-22T01:19:31.278Z,1013.65
2023-04-22T01:20:35.505Z,1013.65
2023-04-22T01:21:39.795Z,1013.65
2023-04-22T01:22:44.037Z,1013.64
2023-04-22T01:23:48.181Z,1013.64
2023-04-22T01:25:06.586Z,1013.64
2023-04-22T01:26:09.840Z,1013.66
2023-04-22T01:27:14.147Z,1013.66
2023-04-22T01:28:18.381Z,1013.65
2023-04-22T01:29:22.524Z,1013.65
2023-04-22T01:30:26.874Z,1013.66
2023-04-22T01:31:31.134Z,1013.67
2023-04-22T01:32:35.433Z,1013.67
2023-04-22T01:33:39.757Z,1013.64
2023-04-22T01:34:44.058Z,1013.61
2023-04-22T01:35:48.356Z,1013.62
2023-04-22T01:36:52.665Z,1013.62
2023-04-22T01:37:56.849Z,1013.61
2023-04-22T01:39:01.037Z,1013.59
2023-04-22T01:40:05.341Z,1013.58
2023-04-22T01:41:09.611Z,1013.57
2023-04-22T01:42:13.895Z,1013.53
2023-04-22T01:43:18.132Z,1013.52
2023-04-22T01:44:22.439Z,1013.54
2023-04-22T01:45:26.709Z,1013.54
2023-04-22T01:46:31.029Z,1013.52
2023-04-22T01:47:35.258Z,1013.51
2023-04-22T01:48:39.547Z,1013.51
2023-04-22T01:49:57.713Z,1013.46
2023-04-22T01:51:00.852Z,1013.43
2023-04-22T01:52:05.010Z,1013.42
2023-04-22T01:53:09.287Z,1013.42
2023-04-22T01:54:13.584Z,1013.42
2023-04-22T01:55:17.863Z,1013.37
2023-04-22T01:56:22.162Z,1013.36
2023-04-22T01:57:26.314Z,1013.34
2023-04-22T01:58:30.608Z,1013.34
2023-04-22T01:59:34.889Z,1013.34
2023-04-22T02:00:39.159Z,1013.35
2023-04-22T02:01:43.457Z,1013.31
2023-04-22T02:02:47.858Z,1013.32
2023-04-22T02:03:52.113Z,1013.29
2023-04-22T02:04:56.284Z,1013.29
2023-04-22T02:06:00.513Z,1013.30
2023-04-22T02:07:04.839Z,1013.32
2023-04-22T02:08:09.074Z,1013.28
2023-04-22T02:09:13.260Z,1013.29
2023-04-22T02:10:17.583Z,1013.28
2023-04-22T02:11:21.849Z,1013.25
2023-04-22T02:12:26.012Z,1013.24
2023-04-22T02:13:30.313Z,1013.25
2023-04-22T02:14:34.544Z,1013.24
2023-04-22T02:15:41.852Z,1013.20
2023-04-22T02:16:45.144Z,1013.20
2023-04-22T02:17:49.404Z,1013.20
2023-04-22T02:18:53.668Z,1013.20
2023-04-22T02:19:57.908Z,1013.22
2023-04-22T02:21:02.082Z,1013.23
2023-04-22T02:22:06.384Z,1013.23
2023-04-22T02:23:10.541Z,1013.23
2023-04-22T02:24:14.899Z,1013.24
2023-04-22T02:25:19.117Z,1013.24
2023-04-22T02:26:23.285Z,1013.23
2023-04-22T02:27:27.530Z,1013.23
2023-04-22T02:28:31.843Z,1013.22
2023-04-22T02:29:35.995Z,1013.20
2023-04-22T02:30:40.271Z,1013.18
2023-04-22T02:31:44.517Z,1013.16
2023-04-22T02:32:48.788Z,1013.17
2023-04-22T02:33:53.051Z,1013.15
2023-04-22T02:34:57.225Z,1013.14
2023-04-22T02:36:01.537Z,1013.10
2023-04-22T02:37:05.770Z,1013.07
2023-04-22T02:38:10.062Z,1013.06
2023-04-22T02:39:14.336Z,1013.05
2023-04-22T02:40:18.627Z,1013.07
2023-04-22T02:41:22.890Z,1013.07
2023-04-22T02:42:27.134Z,1013.06
2023-04-22T02:43:31.415Z,1013.08
2023-04-22T02:44:35.725Z,1013.05
2023-04-22T02:45:39.887Z,1013.08
2023-04-22T02:46:44.268Z,1013.09
2023-04-22T02:47:48.485Z,1013.07
2023-04-22T02:48:52.716Z,1013.07
2023-04-22T02:49:57.020Z,1013.04
2023-04-22T02:51:01.254Z,1013.04
2023-04-22T02:52:05.435Z,1013.02
2023-04-22T02:53:09.658Z,1013.01
2023-04-22T02:54:13.837Z,1013.00
2023-04-22T02:55:18.215Z,1013.00
2023-04-22T02:56:22.325Z,1013.01
2023-04-22T02:57:26.650Z,1013.01
2023-04-22T02:58:30.889Z,1013.01
2023-04-22T02:59:35.133Z,1012.98
2023-04-22T03:00:39.312Z,1013.01
2023-04-22T03:01:46.563Z,1013.02
2023-04-22T03:02:49.902Z,1013.01
2023-04-22T03:03:54.185Z,1012.99
2023-04-22T03:04:58.418Z,1012.97
2023-04-22T03:06:02.661Z,1012.94
2023-04-22T03:07:06.776Z,1012.94
2023-04-22T03:08:11.103Z,1012.96
2023-04-22T03:09:15.282Z,1012.96
2023-04-22T03:10:19.587Z,1012.96
2023-04-22T03:11:23.804Z,1012.96
2023-04-22T03:12:28.058Z,1012.97
2023-04-22T03:13:32.329Z,1012.98
2023-04-22T03:14:36.587Z,1012.98
2023-04-22T03:15:40.868Z,1012.95
2023-04-22T03:16:45.130Z,1012.94
2023-04-22T03:17:49.374Z,1012.92
2023-04-22T03:18:53.615Z,1012.98
2023-04-22T03:19:57.859Z,1012.97
2023-04-22T03:21:02.166Z,1012.94
2023-04-22T03:22:06.375Z,1012.94
2023-04-22T03:23:10.664Z,1012.91
2023-04-22T03:24:14.785Z,1012.89
2023-04-22T03:25:19.092Z,1012.85
2023-04-22T03:26:23.360Z,1012.84
2023-04-22T03:27:27.603Z,1012.85
2023-04-22T03:28:31.896Z,1012.84
2023-04-22T03:29:42.514Z,1012.86
2023-04-22T03:30:45.045Z,1012.85
2023-04-22T03:31:49.295Z,1012.79
2023-04-22T03:32:53.454Z,1012.79
2023-04-22T03:33:57.705Z,1012.76
2023-04-22T03:35:01.910Z,1012.77
2023-04-22T03:36:06.179Z,1012.72
2023-04-22T03:37:10.503Z,1012.73
2023-04-22T03:38:14.584Z,1012.72
2023-04-22T03:39:21.821Z,1012.72
2023-04-22T03:40:25.201Z,1012.70
2023-04-22T03:41:29.333Z,1012.71
2023-04-22T03:42:33.652Z,1012.71
2023-04-22T03:43:37.807Z,1012.69
2023-04-22T03:44:41.994Z,1012.68
2023-04-22T03:45:46.356Z,1012.66
2023-04-22T03:46:50.509Z,1012.63
2023-04-22T03:47:54.816Z,1012.63
2023-04-22T03:48:58.991Z,1012.63
2023-04-22T03:50:03.307Z,1012.63
2023-04-22T03:51:07.615Z,1012.63
2023-04-22T03:52:11.786Z,1012.62
2023-04-22T03:53:15.988Z,1012.64
2023-04-22T03:54:20.324Z,1012.61
2023-04-22T03:55:24.534Z,1012.60
2023-04-22T03:56:28.823Z,1012.59
2023-04-22T03:57:33.072Z,1012.59
2023-04-22T03:58:37.229Z,1012.58
2023-04-22T03:59:41.750Z,1012.59
2023-04-22T04:00:45.654Z,1012.60
2023-04-22T04:01:49.960Z,1012.60
2023-04-22T04:02:54.375Z,1012.57
2023-04-22T04:03:58.624Z,1012.58
2023-04-22T04:05:02.887Z,1012.61
2023-04-22T04:06:06.919Z,1012.57
2023-04-22T04:07:11.003Z,1012.61
2023-04-22T04:08:15.360Z,1012.60
2023-04-22T04:09:19.471Z,1012.59
2023-04-22T04:10:23.695Z,1012.57
2023-04-22T04:11:27.899Z,1012.59
2023-04-22T04:12:32.150Z,1012.54
2023-04-22T04:13:36.457Z,1012.55
2023-04-22T04:14:40.617Z,1012.57
2023-04-22T04:15:44.978Z,1012.55
2023-04-22T04:16:49.086Z,1012.57
2023-04-22T04:17:53.467Z,1012.55
2023-04-22T04:18:57.642Z,1012.57
2023-04-22T04:20:01.903Z,1012.56
2023-04-22T04:21:06.065Z,1012.55
2023-04-22T04:22:10.367Z,1012.55
2023-04-22T04:23:14.647Z,1012.53
2023-04-22T04:24:18.834Z,1012.52
2023-04-22T04:25:23.129Z,1012.50
2023-04-22T04:26:27.291Z,1012.51
2023-04-22T04:27:31.610Z,1012.50
2023-04-22T04:28:35.892Z,1012.53
2023-04-22T04:29:40.482Z,1012.55
2023-04-22T04:30:44.274Z,1012.53
2023-04-22T04:31:48.684Z,1012.52
2023-04-22T04:32:52.895Z,1012.50
2023-04-22T04:33:57.088Z,1012.51
2023-04-22T04:35:01.372Z,1012.48
2023-04-22T04:36:05.536Z,1012.48
2023-04-22T04:37:09.865Z,1012.46
2023-04-22T04:38:14.102Z,1012.45
2023-04-22T04:39:18.299Z,1012.42
2023-04-22T04:40:22.662Z,1012.42
2023-04-22T04:41:26.905Z,1012.40
2023-04-22T04:42:31.186Z,1012.43
2023-04-22T04:43:35.375Z,1012.41
2023-04-22T04:44:39.631Z,1012.39
2023-04-22T04:45:46.216Z,1012.38
2023-04-22T04:46:48.134Z,1012.37
2023-04-22T04:47:52.425Z,1012.33
2023-04-22T04:48:56.686Z,1012.33
2023-04-22T04:50:00.880Z,1012.33
2023-04-22T04:51:05.146Z,1012.33
2023-04-22T04:52:09.443Z,1012.33
2023-04-22T04:53:13.571Z,1012.33
2023-04-22T04:54:17.897Z,1012.33
2023-04-22T04:55:22.108Z,1012.32
2023-04-22T04:56:26.287Z,1012.30
2023-04-22T04:57:30.564Z,1012.29
2023-04-22T04:58:34.834Z,1012.27
2023-04-22T04:59:39.355Z,1012.26
2023-04-22T05:00:43.356Z,1012.28
2023-04-22T05:01:47.710Z,1012.27
2023-04-22T05:02:51.982Z,1012.27
2023-04-22T05:03:56.219Z,1012.25
2023-04-22T05:05:00.405Z,1012.27
2023-04-22T05:06:04.657Z,1012.29
2023-04-22T05:07:08.924Z,1012.31
2023-04-22T05:08:13.250Z,1012.29
2023-04-22T05:09:17.492Z,1012.29
2023-04-22T05:10:21.662Z,1012.27
2023-04-22T05:11:25.978Z,1012.22
2023-04-22T05:12:30.265Z,1012.21
2023-04-22T05:13:34.536Z,1012.20
2023-04-22T05:14:38.780Z,1012.17
2023-04-22T05:15:43.091Z,1012.15
2023-04-22T05:16:47.258Z,1012.15
2023-04-22T05:17:51.514Z,1012.13
2023-04-22T05:18:55.736Z,1012.10
2023-04-22T05:19:59.953Z,1012.12
2023-04-22T05:21:04.108Z,1012.13
2023-04-22T05:22:22.516Z,1012.11
2023-04-22T05:23:25.535Z,1012.07
2023-04-22T05:24:29.791Z,1012.05
2023-04-22T05:25:33.954Z,1012.04
2023-04-22T05:26:38.258Z,1012.04
2023-04-22T05:27:42.547Z,1012.03
2023-04-22T05:28:46.834Z,1012.02
2023-04-22T05:29:51.172Z,1012.02
2023-04-22T05:30:55.423Z,1012.03
2023-04-22T05:31:59.756Z,1012.02
2023-04-22T05:33:04.061Z,1012.00
2023-04-22T05:34:08.282Z,1011.98
2023-04-22T05:35:12.477Z,1011.96
2023-04-22T05:36:16.834Z,1011.94
2023-04-22T05:37:21.000Z,1011.97
2023-04-22T05:38:25.345Z,1011.98
2023-04-22T05:39:29.660Z,1011.97
2023-04-22T05:40:33.852Z,1011.96
2023-04-22T05:41:38.270Z,1011.94
2023-04-22T05:42:42.363Z,1011.95
2023-04-22T05:43:46.838Z,1011.97
2023-04-22T05:44:51.067Z,1011.96
2023-04-22T05:45:55.458Z,1011.94
2023-04-22T05:46:59.704Z,1011.96
2023-04-22T05:48:04.057Z,1011.92
2023-04-22T05:49:08.316Z,1011.93
2023-04-22T05:50:12.530Z,1011.91
2023-04-22T05:51:16.872Z,1011.88
2023-04-22T05:52:21.194Z,1011.87
2023-04-22T05:53:25.475Z,1011.88
2023-04-22T05:54:29.780Z,1011.86
2023-04-22T05:55:34.092Z,1011.83
2023-04-22T05:56:38.387Z,1011.81
2023-04-22T05:59:09.913Z,1011.80
2023-04-22T06:00:13.959Z,1011.80
2023-04-22T06:01:32.376Z,1011.82
2023-04-22T06:02:35.703Z,1011.82
2023-04-22T06:03:40.185Z,1011.80
2023-04-22T06:04:47.316Z,1011.79
2023-04-22T06:05:50.591Z,1011.74
2023-04-22T06:06:54.877Z,1011.71
2023-04-22T06:07:59.171Z,1011.71
2023-04-22T06:09:03.469Z,1011.69
2023-04-22T06:10:07.806Z,1011.68
2023-04-22T06:11:12.131Z,1011.67
2023-04-22T06:12:16.455Z,1011.68
2023-04-22T06:13:20.744Z,1011.68
2023-04-22T06:14:25.117Z,1011.68
2023-04-22T06:15:29.548Z,1011.66
2023-04-22T06:16:33.807Z,1011.64
2023-04-22T06:17:38.157Z,1011.63
2023-04-22T06:18:42.499Z,1011.62
2023-04-22T06:19:46.797Z,1011.61
2023-04-22T06:20:51.220Z,1011.62
2023-04-22T06:21:55.550Z,1011.58
2023-04-22T06:22:59.902Z,1011.57
2023-04-22T06:24:04.215Z,1011.55
2023-04-22T06:25:08.571Z,1011.58
2023-04-22T06:26:12.963Z,1011.56
2023-04-22T06:27:17.275Z,1011.49
2023-04-22T06:28:21.603Z,1011.46
2023-04-22T06:29:25.970Z,1011.44
2023-04-22T06:30:30.312Z,1011.42
2023-04-22T06:31:48.778Z,1011.40
2023-04-22T06:32:51.952Z,1011.40
2023-04-22T06:33:56.227Z,1011.42
2023-04-22T06:35:00.546Z,1011.41
2023-04-22T06:36:04.900Z,1011.41
2023-04-22T06:37:09.235Z,1011.42
2023-04-22T06:38:13.534Z,1011.40
2023-04-22T06:39:17.843Z,1011.42
2023-04-22T06:40:22.159Z,1011.42
2023-04-22T06:41:26.497Z,1011.40
2023-04-22T06:42:30.832Z,1011.40
2023-04-22T06:43:35.146Z,1011.37
2023-04-22T06:44:39.496Z,1011.37
2023-04-22T06:45:43.866Z,1011.38
2023-04-22T06:46:48.176Z,1011.41
2023-04-22T06:47:52.482Z,1011.39
2023-04-22T06:48:56.843Z,1011.38
2023-04-22T06:50:01.180Z,1011.32
2023-04-22T06:51:05.547Z,1011.31
2023-04-22T06:52:09.974Z,1011.32
2023-04-22T06:53:14.248Z,1011.29
2023-04-22T06:54:18.580Z,1011.25
2023-04-22T06:55:22.935Z,1011.23
2023-04-22T06:56:27.292Z,1011.20
2023-04-22T06:57:31.637Z,1011.17
2023-04-22T06:58:35.990Z,1011.17
2023-04-22T06:59:40.876Z,1011.15
2023-04-22T07:00:58.689Z,1011.11
2023-04-22T07:02:01.980Z,1011.14
2023-04-22T07:03:06.346Z,1011.13
2023-04-22T07:04:10.612Z,1011.14
2023-04-22T07:05:14.949Z,1011.13
2023-04-22T07:06:19.422Z,1011.07
2023-04-22T07:07:23.619Z,1011.11
2023-04-22T07:08:27.961Z,1011.06
2023-04-22T07:09:32.383Z,1011.03
2023-04-22T07:10:36.745Z,1011.01
2023-04-22T07:11:40.996Z,1011.02
2023-04-22T07:12:59.215Z,1011.03
2023-04-22T07:14:02.584Z,1011.07
2023-04-22T07:15:12.897Z,1011.10
2023-04-22T07:16:16.055Z,1011.07
2023-04-22T07:17:20.171Z,1011.07
2023-04-22T07:18:24.480Z,1011.08
2023-04-22T07:19:28.713Z,1011.08
2023-04-22T07:20:33.069Z,1011.05
2023-04-22T07:21:37.524Z,1010.94
2023-04-22T07:22:41.833Z,1010.87
2023-04-22T07:24:00.109Z,1010.81
2023-04-22T07:25:03.476Z,1010.81
2023-04-22T07:26:07.609Z,1010.83
2023-04-22T07:27:12.018Z,1010.85
2023-04-22T07:28:16.315Z,1010.83
2023-04-22T07:29:20.728Z,1010.80
2023-04-22T07:30:24.975Z,1010.82
2023-04-22T07:31:29.393Z,1010.81
2023-04-22T07:32:33.605Z,1010.85
2023-04-22T07:33:38.013Z,1010.80
2023-04-22T07:34:45.457Z,1010.79
2023-04-22T07:35:48.995Z,1010.80
2023-04-22T07:36:53.177Z,1010.80
2023-04-22T07:37:57.638Z,1010.82
2023-04-22T07:39:01.956Z,1010.77
2023-04-22T07:40:06.383Z,1010.80
2023-04-22T07:41:10.797Z,1010.81
2023-04-22T07:42:15.226Z,1010.75
2023-04-22T07:43:19.540Z,1010.76
2023-04-22T07:44:23.793Z,1010.72
2023-04-22T07:45:28.352Z,1010.73
2023-04-22T07:46:46.620Z,1010.75
2023-04-22T07:47:49.800Z,1010.72
2023-04-22T07:48:54.126Z,1010.73
2023-04-22T07:49:58.296Z,1010.70
2023-04-22T07:51:02.744Z,1010.69
2023-04-22T07:52:07.138Z,1010.72
2023-04-22T07:53:11.483Z,1010.71
2023-04-22T07:54:15.756Z,1010.68
2023-04-22T07:55:20.179Z,1010.68
2023-04-22T07:56:24.563Z,1010.69
2023-04-22T07:57:28.949Z,1010.66
2023-04-22T07:58:33.363Z,1010.65
2023-04-22T07:59:37.848Z,1010.65
2023-04-22T08:00:42.108Z,1010.60
2023-04-22T08:01:46.499Z,1010.60
2023-04-22T08:02:51.040Z,1010.56
2023-04-22T08:03:55.595Z,1010.55
2023-04-22T08:04:59.666Z,1010.55
2023-04-22T08:06:04.049Z,1010.54
2023-04-22T08:07:29.841Z,1010.55
2023-04-22T08:08:12.780Z,1010.58
2023-04-22T08:09:17.290Z,1010.58
2023-04-22T08:10:21.676Z,1010.56
2023-04-22T08:11:26.017Z,1010.53
2023-04-22T08:12:30.471Z,1010.49
2023-04-22T08:13:34.807Z,1010.49
2023-04-22T08:14:53.282Z,1010.48
2023-04-22T08:15:56.680Z,1010.51
2023-04-22T08:17:00.909Z,1010.49
2023-04-22T08:18:05.354Z,1010.51
2023-04-22T08:19:09.656Z,1010.44
2023-04-22T08:20:17.084Z,1010.48
2023-04-22T08:21:20.687Z,1010.44
2023-04-22T08:22:28.112Z,1010.46
2023-04-22T08:23:31.618Z,1010.47
2023-04-22T08:24:35.968Z,1010.42
2023-04-22T08:25:40.377Z,1010.39
2023-04-22T08:26:44.753Z,1010.34
2023-04-22T08:27:49.184Z,1010.34
2023-04-22T08:28:53.592Z,1010.29
2023-04-22T08:29:57.999Z,1010.23
2023-04-22T08:31:02.442Z,1010.25
2023-04-22T08:32:06.788Z,1010.20
2023-04-22T08:33:11.194Z,1010.16
2023-04-22T08:34:15.546Z,1010.16
2023-04-22T08:35:19.914Z,1010.14
2023-04-22T08:36:24.279Z,1010.17
2023-04-22T08:37:28.687Z,1010.15
2023-04-22T08:38:33.136Z,1010.12
2023-04-22T08:39:37.706Z,1010.09
2023-04-22T08:40:41.938Z,1010.08
2023-04-22T08:41:46.469Z,1010.08
2023-04-22T08:42:50.780Z,1010.09
2023-04-22T08:45:22.562Z,1010.11
2023-04-22T08:46:26.878Z,1010.13
2023-04-22T08:47:31.218Z,1010.14
2023-04-22T08:48:35.599Z,1010.14
2023-04-22T08:49:40.208Z,1010.09
2023-04-22T08:50:44.296Z,1010.10
2023-04-22T08:51:48.719Z,1010.06
2023-04-22T08:52:59.122Z,1010.11
2023-04-22T08:54:02.210Z,1010.16
2023-04-22T08:55:06.567Z,1010.07
2023-04-22T08:56:10.985Z,1010.07
2023-04-22T08:57:15.371Z,1010.09
2023-04-22T08:58:19.799Z,1010.07
2023-04-22T08:59:24.192Z,1010.05
2023-04-22T09:00:28.604Z,1010.02
2023-04-22T09:01:33.086Z,1010.02
2023-04-22T09:02:37.420Z,1010.03
2023-04-22T09:03:41.878Z,1010.02
2023-04-22T09:04:46.190Z,1009.97
2023-04-22T09:05:50.725Z,1009.95
2023-04-22T09:06:55.082Z,1009.92
2023-04-22T09:07:59.486Z,1009.88
2023-04-22T09:09:03.959Z,1009.90
2023-04-22T09:10:08.376Z,1009.88
2023-04-22T09:11:12.788Z,1009.84
2023-04-22T09:12:31.298Z,1009.84
2023-04-22T09:13:34.682Z,1009.82
2023-04-22T09:14:39.032Z,1009.80
2023-04-22T09:15:43.446Z,1009.80
2023-04-22T09:16:48.013Z,1009.72
2023-04-22T09:17:52.352Z,1009.72
2023-04-22T09:18:56.747Z,1009.73
2023-04-22T09:20:01.124Z,1009.72
2023-04-22T09:21:05.515Z,1009.67
2023-04-22T09:22:15.935Z,1009.67
2023-04-22T09:23:18.990Z,1009.64
2023-04-22T09:24:23.332Z,1009.71
2023-04-22T09:25:27.800Z,1009.67
2023-04-22T09:26:32.211Z,1009.66
2023-04-22T09:27:36.611Z,1009.66
2023-04-22T09:28:40.988Z,1009.62
2023-04-22T09:29:45.427Z,1009.66
2023-04-22T09:30:49.796Z,1009.64
2023-04-22T09:31:54.333Z,1009.62
2023-04-22T09:32:58.767Z,1009.60
2023-04-22T09:34:03.050Z,1009.55
2023-04-22T09:35:07.485Z,1009.58
2023-04-22T09:36:11.929Z,1009.58
2023-04-22T09:37:16.352Z,1009.52
2023-04-22T09:38:20.768Z,1009.55
2023-04-22T09:39:28.090Z,1009.53
2023-04-22T09:40:31.747Z,1009.52
2023-04-22T09:41:36.193Z,1009.49
2023-04-22T09:42:40.574Z,1009.52
2023-04-22T09:43:45.012Z,1009.46
2023-04-22T09:44:49.405Z,1009.41
2023-04-22T09:45:53.834Z,1009.41
2023-04-22T09:46:58.169Z,1009.36
2023-04-22T09:48:02.637Z,1009.36
2023-04-22T09:49:08.013Z,1009.33
2023-04-22T09:50:12.018Z,1009.32
2023-04-22T09:51:19.426Z,1009.32
2023-04-22T09:52:22.979Z,1009.32
2023-04-22T09:53:27.389Z,1009.34
2023-04-22T09:54:31.785Z,1009.32
2023-04-22T09:55:52.259Z,1009.34
2023-04-22T09:56:55.738Z,1009.31
2023-04-22T09:58:00.120Z,1009.29
2023-04-22T09:59:04.480Z,1009.27
2023-04-22T10:00:08.921Z,1009.26
2023-04-22T10:01:13.379Z,1009.28
2023-04-22T10:02:17.768Z,1009.26
2023-04-22T10:03:22.198Z,1009.19
2023-04-22T10:04:26.741Z,1009.14
2023-04-22T10:05:31.001Z,1009.13
2023-04-22T10:06:35.518Z,1009.16
2023-04-22T10:07:39.902Z,1009.10
2023-04-22T10:08:44.273Z,1009.09
2023-04-22T10:09:48.678Z,1009.00
2023-04-22T10:10:53.105Z,1008.99
2023-04-22T10:11:57.420Z,1008.98
2023-04-22T10:13:07.969Z,1008.95
2023-04-22T10:14:10.984Z,1008.89
2023-04-22T10:15:15.469Z,1008.89
2023-04-22T10:16:19.877Z,1008.85
2023-04-22T10:17:38.217Z,1008.85
2023-04-22T10:18:55.571Z,1008.87
2023-04-22T10:19:58.523Z,1008.82
2023-04-22T10:21:02.866Z,1008.80
2023-04-22T10:22:07.408Z,1008.75
2023-04-22T10:23:11.717Z,1008.76
2023-04-22T10:24:16.131Z,1008.75
2023-04-22T10:25:20.540Z,1008.75
2023-04-22T10:26:24.929Z,1008.77
2023-04-22T10:27:29.363Z,1008.79
2023-04-22T10:28:33.880Z,1008.72
2023-04-22T10:29:38.596Z,1008.69
2023-04-22T10:30:42.713Z,1008.67
2023-04-22T10:31:47.140Z,1008.68
2023-04-22T10:32:51.746Z,1008.64
2023-04-22T10:33:56.091Z,1008.66
2023-04-22T10:35:00.511Z,1008.63
2023-04-22T10:36:04.894Z,1008.66
2023-04-22T10:37:09.273Z,1008.64
2023-04-22T10:38:27.720Z,1008.62
2023-04-22T10:39:34.002Z,1008.63
2023-04-22T10:40:37.489Z,1008.64
2023-04-22T10:43:09.475Z,1008.56
2023-04-22T10:44:13.819Z,1008.50
2023-04-22T10:45:18.315Z,1008.47
2023-04-22T10:46:28.775Z,1008.48
2023-04-22T10:47:31.931Z,1008.50
2023-04-22T10:48:36.244Z,1008.50
2023-04-22T10:49:40.863Z,1008.51
2023-04-22T10:50:45.190Z,1008.52
2023-04-22T10:51:49.511Z,1008.44
2023-04-22T10:52:53.975Z,1008.48
2023-04-22T10:55:25.757Z,1008.51
2023-04-22T10:56:51.739Z,1008.48
2023-04-22T10:58:01.492Z,1008.44
2023-04-22T10:59:04.797Z,1008.42
2023-04-22T11:00:09.104Z,1008.45
2023-04-22T11:01:13.480Z,1008.38
2023-04-22T11:02:18.110Z,1008.43
2023-04-22T11:03:22.459Z,1008.35
2023-04-22T11:04:26.810Z,1008.28
2023-04-22T11:05:31.152Z,1008.24
2023-04-22T11:06:35.504Z,1008.16
2023-04-22T11:07:40.058Z,1008.14
2023-04-22T11:08:44.456Z,1008.17
2023-04-22T11:09:48.796Z,1008.19
2023-04-22T11:10:54.254Z,1008.11
2023-04-22T11:11:58.235Z,1008.16
2023-04-22T11:13:02.805Z,1008.19
2023-04-22T11:14:07.193Z,1008.17
2023-04-22T11:15:11.612Z,1008.15
2023-04-22T11:16:16.124Z,1008.14
2023-04-22T11:17:20.546Z,1008.16
2023-04-22T11:18:24.934Z,1008.10
2023-04-22T11:19:29.483Z,1008.09
2023-04-22T11:20:34.015Z,1008.05
2023-04-22T11:21:38.399Z,1008.06
2023-04-22T11:22:42.863Z,1008.06
2023-04-22T11:23:47.286Z,1007.98
2023-04-22T11:24:51.649Z,1008.04
2023-04-22T11:25:56.115Z,1008.01
2023-04-22T11:27:00.558Z,1008.03
2023-04-22T11:28:21.036Z,1007.99
2023-04-22T11:29:22.283Z,1008.00
2023-04-22T11:30:26.733Z,1008.03
2023-04-22T11:31:37.200Z,1007.99
2023-04-22T11:32:40.283Z,1007.97
2023-04-22T11:33:44.666Z,1007.96
2023-04-22T11:34:49.101Z,1007.93
2023-04-22T11:35:53.516Z,1007.95
2023-04-22T11:36:57.998Z,1007.91
2023-04-22T11:38:02.371Z,1007.88
2023-04-22T11:39:06.836Z,1007.99
2023-04-22T11:40:21.691Z,1007.96
2023-04-22T11:41:21.757Z,1007.99
2023-04-22T11:42:24.862Z,1007.93
2023-04-22T11:43:29.269Z,1007.96
2023-04-22T11:44:33.721Z,1007.99
2023-04-22T11:45:38.216Z,1007.93
2023-04-22T11:46:42.624Z,1007.88
2023-04-22T11:47:47.046Z,1007.88
2023-04-22T11:48:51.543Z,1007.84
2023-04-22T11:50:10.006Z,1007.82
2023-04-22T11:51:13.410Z,1007.81
2023-04-22T11:52:19.111Z,1007.87
2023-04-22T11:53:22.123Z,1007.80
2023-04-22T11:54:26.541Z,1007.78
2023-04-22T11:55:30.970Z,1007.82
2023-04-22T11:56:35.431Z,1007.86
2023-04-22T11:57:39.898Z,1007.78
2023-04-22T11:58:44.272Z,1007.78
2023-04-22T11:59:48.773Z,1007.72
2023-04-22T12:00:53.226Z,1007.73
2023-04-22T12:01:57.743Z,1007.65
2023-04-22T12:03:02.320Z,1007.60
2023-04-22T12:04:06.828Z,1007.63
2023-04-22T12:05:11.208Z,1007.57
2023-04-22T12:06:16.560Z,1007.55
2023-04-22T12:07:20.693Z,1007.55
2023-04-22T12:08:25.047Z,1007.56
2023-04-22T12:09:29.445Z,1007.57
2023-04-22T12:10:34.031Z,1007.54
2023-04-22T12:11:38.353Z,1007.47
2023-04-22T12:12:56.892Z,1007.48
2023-04-22T12:14:00.305Z,1007.43
2023-04-22T12:15:04.721Z,1007.42
2023-04-22T12:16:09.151Z,1007.36
2023-04-22T12:17:13.759Z,1007.38
2023-04-22T12:18:32.145Z,1007.44
2023-04-22T12:19:35.375Z,1007.35
2023-04-22T12:20:39.831Z,1007.37
2023-04-22T12:21:44.213Z,1007.39
2023-04-22T12:22:48.771Z,1007.35
2023-04-22T12:23:53.208Z,1007.35
2023-04-22T12:24:57.556Z,1007.35
2023-04-22T12:26:16.007Z,1007.32
2023-04-22T12:27:19.189Z,1007.30
2023-04-22T12:28:23.541Z,1007.33
2023-04-22T12:29:27.953Z,1007.28
2023-04-22T12:30:32.356Z,1007.32
2023-04-22T12:31:36.975Z,1007.31
2023-04-22T12:32:41.264Z,1007.29
2023-04-22T12:33:45.714Z,1007.31
2023-04-22T12:34:50.103Z,1007.26
2023-04-22T12:35:54.605Z,1007.23
2023-04-22T12:36:59.071Z,1007.20
2023-04-22T12:38:03.552Z,1007.19
2023-04-22T12:39:22.127Z,1007.21
2023-04-22T12:40:25.655Z,1007.16
2023-04-22T12:41:29.995Z,1007.14
2023-04-22T12:42:34.457Z,1007.14
2023-04-22T12:43:53.034Z,1007.13
2023-04-22T12:44:56.287Z,1007.16
2023-04-22T12:46:00.770Z,1007.13
2023-04-22T12:47:05.251Z,1007.13
2023-04-22T12:48:09.703Z,1007.09
2023-04-22T12:49:14.167Z,1007.09
2023-04-22T12:50:32.791Z,1007.07
2023-04-22T12:51:36.441Z,1006.99
2023-04-22T12:52:40.923Z,1007.00
2023-04-22T12:53:45.497Z,1006.94
2023-04-22T12:54:49.961Z,1006.97
2023-04-22T12:55:54.404Z,1006.96
2023-04-22T12:56:58.861Z,1006.92
2023-04-22T12:58:03.302Z,1006.93
2023-04-22T12:59:07.850Z,1006.97
2023-04-22T13:00:12.220Z,1006.98
2023-04-22T13:01:16.845Z,1006.89
2023-04-22T13:02:21.274Z,1006.88
2023-04-22T13:03:39.856Z,1006.89
2023-04-22T13:04:43.266Z,1006.81
2023-04-22T13:05:50.620Z,1006.83
2023-04-22T13:06:54.250Z,1006.87
2023-04-22T13:08:06.622Z,1006.85
2023-04-22T13:09:03.197Z,1006.79
2023-04-22T13:10:07.623Z,1006.83